createdAt,value
2019-06-07T00:02:20.419Z,12.10
2019-06-07T00:04:46.879Z,12.10
2019-06-07T00:07:14.984Z,12.10
2019-06-07T00:09:42.051Z,12.00
2019-06-07T00:12:09.532Z,12.00
2019-06-07T00:14:37.260Z,12.00
2019-06-07T00:17:03.735Z,11.90
2019-06-07T00:19:30.203Z,11.80
2019-06-07T00:24:25.283Z,11.80
2019-06-07T00:26:58.424Z,11.70
2019-06-07T00:29:22.014Z,11.70
2019-06-07T00:31:48.698Z,11.60
2019-06-07T00:34:17.023Z,11.60
2019-06-07T00:36:43.538Z,11.60
2019-06-07T00:39:10.640Z,11.60
2019-06-07T00:41:38.461Z,11.60
2019-06-07T00:44:05.012Z,11.70
2019-06-07T00:46:31.476Z,11.70
2019-06-07T00:48:58.304Z,11.60
2019-06-07T00:51:24.876Z,11.50
2019-06-07T00:53:51.413Z,11.50
2019-06-07T00:56:20.279Z,11.50
2019-06-07T00:58:46.487Z,11.60
2019-06-07T01:01:13.718Z,11.60
2019-06-07T01:03:41.435Z,11.50
2019-06-07T01:06:07.894Z,11.40
2019-06-07T01:08:34.385Z,11.40
2019-06-07T01:11:01.191Z,11.40
2019-06-07T01:13:28.012Z,11.50
2019-06-07T01:15:54.481Z,11.50
2019-06-07T01:18:41.216Z,11.60
2019-06-07T01:20:49.711Z,11.60
2019-06-07T01:23:54.319Z,11.50
2019-06-07T01:25:44.586Z,11.50
2019-06-07T01:28:11.302Z,11.40
2019-06-07T01:30:38.067Z,11.40
2019-06-07T01:33:04.579Z,11.40
2019-06-07T01:35:31.617Z,11.30
2019-06-07T01:37:58.442Z,11.10
2019-06-07T01:40:31.334Z,11.00
2019-06-07T01:42:53.670Z,11.00
2019-06-07T01:45:21.353Z,11.00
2019-06-07T01:47:48.093Z,11.00
2019-06-07T01:50:14.614Z,10.90
2019-06-07T01:52:41.068Z,11.00
2019-06-07T01:55:08.130Z,10.90
2019-06-07T01:57:47.590Z,10.90
2019-06-07T02:00:03.338Z,10.80
2019-06-07T02:02:31.589Z,10.80
2019-06-07T02:04:58.238Z,10.70
2019-06-07T02:07:28.045Z,10.70
2019-06-07T02:09:53.614Z,10.60
2019-06-07T02:12:28.118Z,10.60
2019-06-07T02:14:48.475Z,10.50
2019-06-07T02:17:14.934Z,10.50
2019-06-07T02:19:41.437Z,10.50
2019-06-07T02:22:08.174Z,10.60
2019-06-07T02:24:35.908Z,10.70
2019-06-07T02:27:03.299Z,10.80
2019-06-07T02:29:31.895Z,10.90
2019-06-07T02:31:58.563Z,11.00
2019-06-07T02:34:28.181Z,11.10
2019-06-07T02:36:54.055Z,11.10
2019-06-07T02:39:23.926Z,11.20
2019-06-07T02:41:49.459Z,11.20
2019-06-07T02:44:15.917Z,11.30
2019-06-07T02:46:48.888Z,11.30
2019-06-07T02:49:11.082Z,11.40
2019-06-07T02:51:41.720Z,11.40
2019-06-07T02:54:06.211Z,11.50
2019-06-07T02:56:48.870Z,11.60
2019-06-07T02:59:01.448Z,11.60
2019-06-07T03:01:31.342Z,11.70
2019-06-07T03:03:56.576Z,11.80
2019-06-07T03:06:23.298Z,11.80
2019-06-07T03:08:50.066Z,11.90
2019-06-07T03:11:16.522Z,12.00
2019-06-07T03:13:44.266Z,12.00
2019-06-07T03:16:12.691Z,12.10
2019-06-07T03:19:03.411Z,12.10
2019-06-07T03:21:31.507Z,12.20
2019-06-07T03:23:58.577Z,12.20
2019-06-07T03:26:27.437Z,12.30
2019-06-07T03:28:53.935Z,12.50
2019-06-07T03:31:20.991Z,12.60
2019-06-07T03:33:47.562Z,12.70
2019-06-07T03:36:23.849Z,12.70
2019-06-07T03:38:42.427Z,12.80
2019-06-07T03:41:08.972Z,12.80
2019-06-07T03:43:38.700Z,12.90
2019-06-07T03:46:03.814Z,12.90
2019-06-07T03:48:32.251Z,13.00
2019-06-07T03:51:04.609Z,12.90
2019-06-07T03:53:30.461Z,12.90
2019-06-07T03:55:56.014Z,12.90
2019-06-07T03:58:32.643Z,13.00
2019-06-07T04:00:51.191Z,13.00
2019-06-07T04:03:32.951Z,13.00
2019-06-07T04:05:46.882Z,13.00
2019-06-07T04:08:13.436Z,12.90
2019-06-07T04:10:53.384Z,13.00
2019-06-07T04:13:08.867Z,13.00
2019-06-07T04:15:38.294Z,12.90
2019-06-07T04:18:04.197Z,12.90
2019-06-07T04:20:32.895Z,12.90
2019-06-07T04:22:59.187Z,13.00
2019-06-07T04:25:25.987Z,13.10
2019-06-07T04:27:53.551Z,13.10
2019-06-07T04:30:37.299Z,13.30
2019-06-07T04:33:04.236Z,13.40
2019-06-07T04:35:32.362Z,13.40
2019-06-07T04:37:59.670Z,13.50
2019-06-07T04:40:26.138Z,13.50
2019-06-07T04:42:52.822Z,13.40
2019-06-07T04:45:33.462Z,13.40
2019-06-07T04:47:47.672Z,13.50
2019-06-07T04:50:14.430Z,13.50
2019-06-07T04:52:44.912Z,13.50
2019-06-07T04:55:09.552Z,13.50
2019-06-07T04:57:37.614Z,13.60
2019-06-07T05:00:33.417Z,13.60
2019-06-07T05:02:36.819Z,13.60
2019-06-07T05:05:01.471Z,13.70
2019-06-07T05:07:30.545Z,13.80
2019-06-07T05:09:56.623Z,13.90
2019-06-07T05:12:23.422Z,14.00
2019-06-07T05:14:49.910Z,14.10
2019-06-07T05:17:16.723Z,14.30
2019-06-07T05:19:44.514Z,14.50
2019-06-07T05:22:11.482Z,14.50
2019-06-07T05:24:40.791Z,14.50
2019-06-07T05:27:06.983Z,14.50
2019-06-07T05:29:36.764Z,14.50
2019-06-07T05:32:02.211Z,14.50
2019-06-07T05:34:28.689Z,14.60
2019-06-07T05:37:11.109Z,14.70
2019-06-07T05:39:23.615Z,14.80
2019-06-07T05:41:50.351Z,14.90
2019-06-07T05:44:16.915Z,14.80
2019-06-07T05:46:47.044Z,14.80
2019-06-07T05:49:12.207Z,14.80
2019-06-07T05:51:41.894Z,14.70
2019-06-07T05:54:07.506Z,14.70
2019-06-07T05:56:35.876Z,14.90
2019-06-07T05:59:02.592Z,15.00
2019-06-07T06:01:56.311Z,15.10
2019-06-07T06:03:57.935Z,15.10
2019-06-07T06:06:24.576Z,15.20
2019-06-07T06:08:51.367Z,15.30
2019-06-07T06:11:17.834Z,15.50
2019-06-07T06:14:05.648Z,15.60
2019-06-07T06:16:12.866Z,15.60
2019-06-07T06:18:40.752Z,15.70
2019-06-07T06:21:17.860Z,15.70
2019-06-07T06:23:39.595Z,15.70
2019-06-07T06:26:04.564Z,15.80
2019-06-07T06:28:31.304Z,15.90
2019-06-07T06:30:57.759Z,16.00
2019-06-07T06:33:33.366Z,16.10
2019-06-07T06:35:53.156Z,16.20
2019-06-07T06:38:19.642Z,16.20
2019-06-07T06:40:48.926Z,16.30
2019-06-07T06:43:14.569Z,16.50
2019-06-07T06:45:42.816Z,16.90
2019-06-07T06:48:10.082Z,17.20
2019-06-07T06:50:36.634Z,17.50
2019-06-07T06:53:03.109Z,17.80
2019-06-07T06:55:29.570Z,17.90
2019-06-07T06:57:56.662Z,18.00
2019-06-07T07:00:46.231Z,18.10
2019-06-07T07:03:47.682Z,18.30
2019-06-07T07:05:37.678Z,18.50
2019-06-07T07:08:04.261Z,18.80
2019-06-07T07:10:37.834Z,19.20
2019-06-07T07:13:04.640Z,19.40
2019-06-07T07:15:31.491Z,19.70
2019-06-07T07:18:07.933Z,20.00
2019-06-07T07:20:26.340Z,20.20
2019-06-07T07:22:56.437Z,20.80
2019-06-07T07:25:21.503Z,21.00
2019-06-07T07:27:52.106Z,20.90
2019-06-07T07:32:48.949Z,21.50
2019-06-07T07:35:16.239Z,21.50
2019-06-07T07:37:43.744Z,21.60
2019-06-07T07:40:55.603Z,21.70
2019-06-07T07:42:39.850Z,22.30
2019-06-07T07:45:07.112Z,22.70
2019-06-07T07:47:33.624Z,23.30
2019-06-07T07:50:00.201Z,24.10
2019-06-07T07:52:26.646Z,24.60
2019-06-07T07:54:56.628Z,24.30
2019-06-07T07:57:22.488Z,24.40
2019-06-07T08:00:06.248Z,25.00
2019-06-07T08:02:17.610Z,25.90
2019-06-07T08:05:13.732Z,26.40
2019-06-07T08:07:12.540Z,26.70
2019-06-07T08:09:39.026Z,27.40
2019-06-07T08:12:05.512Z,27.80
2019-06-07T08:14:31.984Z,27.30
2019-06-07T08:16:59.307Z,26.70
2019-06-07T08:19:26.118Z,26.70
2019-06-07T08:21:53.100Z,26.60
2019-06-07T08:24:19.746Z,27.10
2019-06-07T08:27:13.107Z,26.40
2019-06-07T08:29:14.727Z,25.70
2019-06-07T08:31:41.191Z,24.50
2019-06-07T08:34:07.663Z,24.30
2019-06-07T08:36:42.003Z,24.20
2019-06-07T08:39:07.568Z,23.20
2019-06-07T08:41:33.163Z,23.20
2019-06-07T08:44:02.644Z,23.40
2019-06-07T08:46:28.123Z,23.40
2019-06-07T08:48:57.161Z,23.20
2019-06-07T08:51:22.954Z,22.50
2019-06-07T08:54:08.465Z,21.90
2019-06-07T08:56:18.272Z,21.80
2019-06-07T08:58:45.041Z,21.90
2019-06-07T09:01:11.517Z,21.70
2019-06-07T09:03:38.278Z,21.70
2019-06-07T09:06:16.355Z,21.70
2019-06-07T09:08:33.758Z,23.20
2019-06-07T09:11:05.130Z,23.70
2019-06-07T09:13:28.596Z,23.30
2019-06-07T09:15:56.063Z,23.30
2019-06-07T09:18:41.319Z,24.50
2019-06-07T09:20:52.153Z,25.30
2019-06-07T09:23:18.687Z,24.70
2019-06-07T09:25:57.371Z,24.70
2019-06-07T09:28:19.358Z,25.40
2019-06-07T09:30:42.480Z,25.80
2019-06-07T09:33:09.486Z,25.50
2019-06-07T09:35:36.650Z,24.80
2019-06-07T09:38:11.073Z,24.80
2019-06-07T09:40:31.482Z,24.90
2019-06-07T09:43:47.313Z,25.50
2019-06-07T09:45:26.311Z,24.60
2019-06-07T09:47:52.770Z,23.70
2019-06-07T09:50:19.314Z,23.60
2019-06-07T09:52:57.805Z,24.50
2019-06-07T09:55:23.446Z,24.60
2019-06-07T09:57:42.787Z,24.40
2019-06-07T10:00:39.142Z,24.70
2019-06-07T10:02:40.483Z,24.40
2019-06-07T10:05:12.387Z,23.90
2019-06-07T10:07:35.326Z,23.50
2019-06-07T10:10:22.870Z,23.40
2019-06-07T10:12:30.166Z,23.40
2019-06-07T10:14:56.926Z,23.00
2019-06-07T10:17:23.681Z,23.10
2019-06-07T10:19:50.441Z,23.20
2019-06-07T10:22:17.027Z,23.20
2019-06-07T10:24:43.555Z,22.70
2019-06-07T10:27:10.664Z,22.60
2019-06-07T10:29:37.126Z,22.70
2019-06-07T10:32:04.520Z,23.00
2019-06-07T10:34:31.135Z,22.60
2019-06-07T10:40:07.951Z,22.60
2019-06-07T10:42:35.959Z,22.20
2019-06-07T10:45:04.468Z,21.60
2019-06-07T10:47:31.216Z,21.70
2019-06-07T10:49:58.449Z,21.70
2019-06-07T10:52:25.254Z,21.50
2019-06-07T10:54:52.046Z,21.50
2019-06-07T10:57:18.606Z,21.70
2019-06-07T10:59:45.375Z,22.80
2019-06-07T11:02:13.921Z,24.50
2019-06-07T11:04:40.543Z,24.40
2019-06-07T11:07:08.205Z,24.60
2019-06-07T11:09:35.100Z,24.30
2019-06-07T11:12:01.832Z,24.10
2019-06-07T11:14:28.275Z,24.30
2019-06-07T11:16:55.426Z,25.20
2019-06-07T11:19:22.120Z,26.70
2019-06-07T11:21:48.702Z,26.40
2019-06-07T11:24:18.364Z,25.30
2019-06-07T11:26:44.462Z,25.20
2019-06-07T11:29:11.050Z,25.10
2019-06-07T11:31:39.390Z,24.80
2019-06-07T11:34:06.343Z,24.70
2019-06-07T11:36:33.147Z,24.90
2019-06-07T11:39:00.392Z,25.90
2019-06-07T11:41:26.870Z,26.00
2019-06-07T11:43:53.718Z,26.70
2019-06-07T11:46:20.687Z,27.60
2019-06-07T11:48:47.435Z,28.50
2019-06-07T11:51:14.935Z,28.80
2019-06-07T11:53:41.516Z,28.50
2019-06-07T11:56:07.967Z,29.10
2019-06-07T11:58:34.722Z,29.10
2019-06-07T12:01:01.172Z,29.80
2019-06-07T12:03:27.637Z,30.10
2019-06-07T12:05:54.658Z,30.20
2019-06-07T12:08:21.390Z,31.20
2019-06-07T12:10:48.666Z,30.10
2019-06-07T12:13:17.318Z,28.40
2019-06-07T12:15:44.226Z,27.50
2019-06-07T12:18:11.279Z,27.20
2019-06-07T12:20:38.210Z,28.00
2019-06-07T12:23:05.010Z,28.30
2019-06-07T12:25:32.046Z,29.10
2019-06-07T12:27:59.167Z,29.70
2019-06-07T12:30:27.864Z,28.50
2019-06-07T12:32:54.585Z,27.10
2019-06-07T12:35:21.894Z,26.60
2019-06-07T12:37:49.326Z,27.40
2019-06-07T12:40:26.549Z,28.70
2019-06-07T12:42:47.244Z,30.30
2019-06-07T12:45:30.595Z,30.90
2019-06-07T12:47:42.619Z,30.40
2019-06-07T12:53:31.819Z,29.80
2019-06-07T12:56:00.282Z,29.90
2019-06-07T12:58:34.504Z,30.30
2019-06-07T13:00:59.335Z,30.30
2019-06-07T13:03:24.557Z,30.30
2019-06-07T13:05:51.602Z,30.50
2019-06-07T13:08:18.073Z,30.50
2019-06-07T13:10:44.815Z,30.50
2019-06-07T13:13:11.294Z,30.90
2019-06-07T13:26:20.515Z,30.10
2019-06-07T13:28:47.428Z,28.20
2019-06-07T13:31:13.894Z,28.20
2019-06-07T13:33:40.674Z,28.50
2019-06-07T13:36:07.238Z,28.20
2019-06-07T13:38:33.899Z,27.80
2019-06-07T13:41:00.757Z,27.10
2019-06-07T13:43:28.176Z,26.50
2019-06-07T13:45:54.795Z,26.90
2019-06-07T13:48:21.524Z,27.20
2019-06-07T13:50:48.200Z,27.60
2019-06-07T13:53:14.978Z,28.10
2019-06-07T13:55:41.828Z,28.60
2019-06-07T13:58:08.837Z,28.40
2019-06-07T14:00:35.729Z,27.40
2019-06-07T14:03:02.693Z,27.20
2019-06-07T14:05:29.399Z,27.60
2019-06-07T14:07:56.115Z,28.60
2019-06-07T14:10:23.621Z,29.60
2019-06-07T14:12:50.272Z,29.50
2019-06-07T14:15:16.758Z,29.10
2019-06-07T14:17:43.221Z,28.70
2019-06-07T14:20:10.775Z,28.40
2019-06-07T14:22:38.024Z,28.70
2019-06-07T14:25:04.680Z,29.10
2019-06-07T14:27:32.014Z,29.80
2019-06-07T14:29:58.899Z,29.20
2019-06-07T14:32:26.504Z,29.00
2019-06-07T14:34:53.229Z,28.30
2019-06-07T14:37:19.734Z,28.10
2019-06-07T14:39:46.234Z,28.50
2019-06-07T14:42:12.939Z,28.70
2019-06-07T14:44:40.810Z,28.90
2019-06-07T14:47:07.931Z,28.90
2019-06-07T14:49:34.785Z,28.20
2019-06-07T14:52:01.742Z,28.20
2019-06-07T14:54:33.485Z,28.50
2019-06-07T14:56:57.199Z,28.70
2019-06-07T14:59:23.944Z,28.50
2019-06-07T15:01:50.398Z,28.60
2019-06-07T15:04:17.720Z,28.60
2019-06-07T15:06:44.176Z,27.80
2019-06-07T15:09:11.178Z,27.00
2019-06-07T15:11:39.218Z,27.20
2019-06-07T15:14:06.398Z,27.70
2019-06-07T15:16:33.913Z,28.00
2019-06-07T15:19:00.810Z,28.30
2019-06-07T15:21:28.668Z,27.80
2019-06-07T15:23:55.594Z,26.70
2019-06-07T15:26:22.766Z,25.90
2019-06-07T15:28:49.316Z,25.60
2019-06-07T15:31:15.798Z,25.90
2019-06-07T15:33:42.795Z,26.40
2019-06-07T15:36:09.707Z,26.60
2019-06-07T15:38:37.250Z,26.90
2019-06-07T15:41:04.006Z,26.90
2019-06-07T15:43:31.154Z,26.70
2019-06-07T15:45:57.947Z,26.80
2019-06-07T15:48:24.410Z,26.90
2019-06-07T15:50:51.453Z,26.90
2019-06-07T15:53:18.265Z,26.90
2019-06-07T15:55:45.959Z,26.60
2019-06-07T15:58:12.871Z,26.40
2019-06-07T16:00:41.066Z,26.40
2019-06-07T16:03:08.621Z,26.40
2019-06-07T16:05:36.412Z,26.10
2019-06-07T16:08:03.420Z,26.00
2019-06-07T16:10:30.247Z,25.90
2019-06-07T16:13:00.728Z,25.70
2019-06-07T16:15:25.439Z,25.40
2019-06-07T16:17:52.402Z,25.00
2019-06-07T16:20:18.858Z,24.70
2019-06-07T16:22:45.323Z,24.30
2019-06-07T16:25:12.127Z,24.00
2019-06-07T16:27:40.467Z,23.90
2019-06-07T16:30:09.328Z,24.00
2019-06-07T16:32:37.479Z,23.80
2019-06-07T16:35:04.382Z,23.60
2019-06-07T16:37:31.343Z,23.40
2019-06-07T16:39:58.465Z,23.40
2019-06-07T16:42:25.045Z,23.40
2019-06-07T16:44:51.743Z,23.30
2019-06-07T16:47:18.469Z,23.30
2019-06-07T16:49:45.204Z,23.20
2019-06-07T16:52:12.043Z,23.30
2019-06-07T16:54:39.338Z,23.30
2019-06-07T16:57:06.044Z,23.40
2019-06-07T16:59:32.948Z,23.20
2019-06-07T17:01:59.855Z,23.10
2019-06-07T17:04:26.575Z,23.10
2019-06-07T17:06:53.262Z,23.10
2019-06-07T17:09:20.236Z,23.00
2019-06-07T17:11:46.703Z,22.80
2019-06-07T17:14:13.415Z,22.80
2019-06-07T17:16:40.901Z,22.80
2019-06-07T17:19:07.613Z,22.70
2019-06-07T17:21:34.548Z,22.70
2019-06-07T17:24:01.815Z,22.60
2019-06-07T17:26:28.359Z,22.70
2019-06-07T17:28:54.843Z,22.70
2019-06-07T17:31:21.410Z,22.60
2019-06-07T17:33:48.157Z,22.60
2019-06-07T17:36:14.943Z,22.60
2019-06-07T17:38:42.466Z,22.50
2019-06-07T17:41:09.150Z,22.50
2019-06-07T17:43:48.463Z,22.40
2019-06-07T17:46:04.740Z,22.40
2019-06-07T17:48:31.560Z,22.40
2019-06-07T17:50:58.276Z,22.40
2019-06-07T17:53:25.003Z,22.40
2019-06-07T17:55:52.362Z,22.30
2019-06-07T17:58:19.210Z,22.20
2019-06-07T18:00:46.858Z,22.10
2019-06-07T18:03:13.474Z,22.00
2019-06-07T18:05:40.474Z,22.00
2019-06-07T18:08:07.353Z,22.00
2019-06-07T18:10:35.577Z,21.90
2019-06-07T18:13:02.134Z,21.90
2019-06-07T18:15:35.717Z,21.80
2019-06-07T18:18:02.851Z,21.70
2019-06-07T18:20:30.238Z,21.60
2019-06-07T18:22:58.432Z,21.60
2019-06-07T18:25:25.187Z,21.50
2019-06-07T18:27:52.755Z,21.50
2019-06-07T18:30:19.637Z,21.40
2019-06-07T18:32:46.860Z,21.30
2019-06-07T18:35:14.054Z,21.20
2019-06-07T18:37:40.582Z,21.20
2019-06-07T18:40:07.430Z,21.10
2019-06-07T18:42:34.214Z,21.00
2019-06-07T18:45:00.947Z,20.90
2019-06-07T18:47:27.646Z,20.90
2019-06-07T18:49:55.358Z,20.80
2019-06-07T18:52:28.337Z,20.70
2019-06-07T18:54:55.519Z,20.60
2019-06-07T18:57:22.024Z,20.60
2019-06-07T18:59:48.491Z,20.50
2019-06-07T19:02:15.240Z,20.40
2019-06-07T19:04:41.782Z,20.40
2019-06-07T19:07:08.406Z,20.40
2019-06-07T19:09:35.292Z,20.30
2019-06-07T19:12:01.838Z,20.30
2019-06-07T19:14:37.033Z,20.20
2019-06-07T19:16:57.566Z,20.20
2019-06-07T19:19:24.418Z,20.10
2019-06-07T19:21:52.074Z,20.00
2019-06-07T19:24:18.719Z,19.90
2019-06-07T19:26:45.187Z,19.90
2019-06-07T19:29:11.996Z,19.90
2019-06-07T19:31:38.791Z,19.90
2019-06-07T19:34:05.357Z,19.80
2019-06-07T19:36:47.819Z,19.80
2019-06-07T19:39:02.006Z,19.70
2019-06-07T19:41:28.707Z,19.70
2019-06-07T19:43:56.175Z,19.70
2019-06-07T19:46:23.006Z,19.60
2019-06-07T19:48:49.475Z,19.60
2019-06-07T19:51:19.597Z,19.50
2019-06-07T19:53:44.878Z,19.50
2019-06-07T19:56:11.955Z,19.40
2019-06-07T19:58:38.753Z,19.40
2019-06-07T20:01:05.367Z,19.40
2019-06-07T20:03:32.180Z,19.40
2019-06-07T20:06:00.135Z,19.40
2019-06-07T20:08:26.812Z,19.40
2019-06-07T20:10:54.424Z,19.30
2019-06-07T20:13:21.722Z,19.30
2019-06-07T20:15:48.474Z,19.30
2019-06-07T20:18:15.784Z,19.30
2019-06-07T20:20:42.330Z,19.20
2019-06-07T20:23:09.333Z,19.20
2019-06-07T20:25:36.656Z,19.20
2019-06-07T20:28:03.434Z,19.20
2019-06-07T20:30:30.167Z,19.20
2019-06-07T20:32:57.637Z,19.30
2019-06-07T20:35:24.544Z,19.30
2019-06-07T20:37:51.018Z,19.30
2019-06-07T20:40:24.280Z,19.20
2019-06-07T20:42:47.594Z,19.20
2019-06-07T20:45:14.878Z,19.20
2019-06-07T20:47:41.857Z,19.20
2019-06-07T20:50:08.930Z,19.30
2019-06-07T20:52:36.036Z,19.30
2019-06-07T20:55:06.964Z,19.30
2019-06-07T20:57:37.726Z,19.20
2019-06-07T21:00:17.340Z,19.30
2019-06-07T21:02:41.403Z,19.30
2019-06-07T21:05:09.570Z,19.30
2019-06-07T21:07:38.747Z,19.40
2019-06-07T21:10:05.748Z,19.40
2019-06-07T21:12:32.389Z,19.40
2019-06-07T21:15:05.219Z,19.40
2019-06-07T21:17:29.187Z,19.40
2019-06-07T21:19:55.944Z,19.40
2019-06-07T21:22:22.480Z,19.40
2019-06-07T21:24:49.572Z,19.30
2019-06-07T21:27:16.879Z,19.30
2019-06-07T21:29:45.882Z,19.30
2019-06-07T21:32:12.135Z,19.30
2019-06-07T21:34:38.913Z,19.30
2019-06-07T21:37:05.883Z,19.30
2019-06-07T21:39:32.631Z,19.40
2019-06-07T21:41:59.226Z,19.50
2019-06-07T21:44:26.097Z,19.50
2019-06-07T21:46:52.776Z,19.40
2019-06-07T21:49:19.972Z,19.40
2019-06-07T21:51:46.547Z,19.40
2019-06-07T21:54:14.924Z,19.40
2019-06-07T21:56:41.872Z,19.40
2019-06-07T21:59:09.348Z,19.50
2019-06-07T22:01:36.474Z,19.30
2019-06-07T22:04:03.575Z,19.00
2019-06-07T22:06:30.370Z,18.60
2019-06-07T22:08:57.082Z,18.30
2019-06-07T22:11:23.782Z,17.90
2019-06-07T22:13:50.262Z,17.60
2019-06-07T22:16:28.423Z,17.60
2019-06-07T22:18:45.790Z,17.40
2019-06-07T22:21:12.712Z,17.20
2019-06-07T22:23:39.576Z,17.20
2019-06-07T22:26:07.107Z,17.10
2019-06-07T22:28:34.598Z,16.90
2019-06-07T22:31:01.098Z,16.70
2019-06-07T22:33:27.810Z,16.40
2019-06-07T22:35:54.555Z,16.10
2019-06-07T22:38:21.038Z,15.90
2019-06-07T22:40:47.744Z,15.70
2019-06-07T22:43:14.230Z,15.60
2019-06-07T22:45:40.846Z,15.40
2019-06-07T22:48:08.890Z,15.30
2019-06-07T22:50:36.086Z,15.20
2019-06-07T22:53:07.890Z,15.10
2019-06-07T22:55:34.699Z,15.00
2019-06-07T22:58:01.758Z,14.90
2019-06-07T23:00:29.718Z,14.80
2019-06-07T23:02:56.171Z,14.70
2019-06-07T23:05:22.894Z,14.70
2019-06-07T23:07:49.349Z,14.70
2019-06-07T23:10:17.408Z,14.60
2019-06-07T23:12:44.050Z,14.60
2019-06-07T23:15:11.493Z,14.50
2019-06-07T23:17:38.499Z,14.40
2019-06-07T23:20:05.117Z,14.40
2019-06-07T23:22:31.571Z,14.30
2019-06-07T23:24:58.286Z,14.30
2019-06-07T23:27:24.739Z,14.30
2019-06-07T23:29:51.192Z,14.20
2019-06-07T23:32:20.153Z,14.20
2019-06-07T23:34:46.250Z,14.20
2019-06-07T23:37:13.055Z,14.10
2019-06-07T23:39:39.955Z,14.10
2019-06-07T23:42:06.555Z,14.00
2019-06-07T23:44:33.080Z,13.90
2019-06-07T23:47:10.736Z,13.90
2019-06-07T23:49:28.727Z,13.80
2019-06-07T23:51:55.195Z,13.70
2019-06-07T23:54:22.198Z,13.60
2019-06-07T23:56:49.139Z,13.50
2019-06-07T23:59:16.107Z,13.40
